Orbital elements of COSMOS 970 DEB
| Launched | 20 December 1977 |
| Flight ended | – |
| Launch site | Tyuratam Missile and Space Center, Kazakhstan (Also known as Baikonur Cosmodrome) |
| Owner | Commonwealth of Independent States (former USSR) |
| NORAD ID | 10572 |
| Date fetched |
Epoch osculation |
Inc. [°] |
Ecc. | RA asc node [hr] |
Arg Peri. [°] |
Mean anom [°] |
Mean motion [rev/day] |
Abs. mag |
| Date fetched |
Epoch osculation |
Inc. [°] |
Ecc. | RA asc node [hr] |
Arg Peri. [°] |
Mean anom [°] |
Mean motion [rev/day] |
Abs. mag |
| 2026 May 03 17:57 | 2026 Apr 30 14:25:40 | 65.0332 | 0.01825 | 15.2582 | 348.8966 | 10.8088 | 13.79538 | – |
| 2026 May 02 17:57 | 2026 Apr 30 14:25:40 | 65.0332 | 0.01825 | 15.2582 | 348.8966 | 10.8088 | 13.79538 | – |
| 2026 May 01 17:56 | 2026 Apr 30 14:25:40 | 65.0332 | 0.01825 | 15.2582 | 348.8966 | 10.8088 | 13.79538 | – |
| 2026 Apr 30 17:56 | 2026 Apr 30 14:25:40 | 65.0332 | 0.01825 | 15.2582 | 348.8966 | 10.8088 | 13.79538 | – |
| 2026 Apr 29 17:57 | 2026 Apr 24 10:32:33 | 65.0329 | 0.01819 | 16.3133 | 350.9633 | 10.8088 | 13.79538 | – |
| 2026 Apr 28 17:56 | 2026 Apr 24 10:32:33 | 65.0329 | 0.01819 | 16.3133 | 350.9633 | 10.8088 | 13.79538 | – |
| 2026 Apr 27 17:58 | 2026 Apr 24 10:32:33 | 65.0329 | 0.01819 | 16.3133 | 350.9633 | 10.8088 | 13.79538 | – |
| 2026 Apr 26 17:58 | 2026 Apr 24 10:32:33 | 65.0329 | 0.01819 | 16.3133 | 350.9633 | 10.8088 | 13.79538 | – |
| 2026 Apr 25 17:58 | 2026 Apr 24 10:32:33 | 65.0329 | 0.01819 | 16.3133 | 350.9633 | 10.8088 | 13.79538 | – |
| 2026 Apr 24 17:59 | 2026 Apr 24 10:32:33 | 65.0329 | 0.01819 | 16.3133 | 350.9633 | 10.8088 | 13.79538 | – |
| 2026 Apr 23 17:57 | 2026 Apr 18 20:34:32 | 65.0324 | 0.01815 | 17.2692 | 352.8423 | 10.8088 | 13.79538 | – |
| 2026 Apr 22 17:57 | 2026 Apr 18 20:34:32 | 65.0324 | 0.01815 | 17.2692 | 352.8423 | 10.8088 | 13.79538 | – |
| 2026 Apr 21 17:57 | 2026 Apr 18 20:34:32 | 65.0324 | 0.01815 | 17.2692 | 352.8423 | 10.8088 | 13.79538 | – |
| 2026 Apr 20 17:57 | 2026 Apr 18 20:34:32 | 65.0324 | 0.01815 | 17.2692 | 352.8423 | 10.8088 | 13.79538 | – |
| 2026 Apr 19 17:58 | 2026 Apr 18 20:34:32 | 65.0324 | 0.01815 | 17.2692 | 352.8423 | 10.8088 | 13.79538 | – |
| 2026 Apr 18 17:56 | 2026 Apr 12 20:10:10 | 65.0323 | 0.01810 | 18.2995 | 354.8530 | 10.8088 | 13.79538 | – |
| 2026 Apr 16 17:57 | 2026 Apr 12 20:10:10 | 65.0323 | 0.01810 | 18.2995 | 354.8530 | 10.8088 | 13.79538 | – |
| 2026 Apr 14 17:57 | 2026 Apr 12 20:10:10 | 65.0323 | 0.01810 | 18.2995 | 354.8530 | 10.8088 | 13.79538 | – |
| 2026 Apr 13 17:57 | 2026 Apr 12 20:10:10 | 65.0323 | 0.01810 | 18.2995 | 354.8530 | 10.8088 | 13.79538 | – |
| 2026 Apr 12 17:57 | 2026 Apr 08 13:31:10 | 65.0324 | 0.01806 | 19.0320 | 356.2804 | 10.8088 | 13.79538 | – |
| 2026 Apr 11 17:57 | 2026 Apr 08 13:31:10 | 65.0324 | 0.01806 | 19.0320 | 356.2804 | 10.8088 | 13.79538 | – |
| 2026 Apr 10 17:58 | 2026 Apr 08 13:31:10 | 65.0324 | 0.01806 | 19.0320 | 356.2804 | 10.8088 | 13.79538 | – |
| 2026 Apr 09 18:01 | 2026 Apr 08 13:31:10 | 65.0324 | 0.01806 | 19.0320 | 356.2804 | 10.8088 | 13.79538 | – |
| 2026 Apr 08 17:57 | 2026 Apr 08 13:31:10 | 65.0324 | 0.01806 | 19.0320 | 356.2804 | 10.8088 | 13.79538 | – |
| 2026 Apr 07 17:57 | 2026 Apr 01 23:11:39 | 65.0328 | 0.01801 | 20.1616 | 358.4823 | 10.8088 | 13.79538 | – |
| 2026 Apr 06 17:57 | 2026 Apr 01 23:11:39 | 65.0328 | 0.01801 | 20.1616 | 358.4823 | 10.8088 | 13.79538 | – |